sensor_id;sensor_type;location;lat;lon;timestamp;P1;durP1;ratioP1;P2;durP2;ratioP2
7519;SDS011;3801;48.876;10.184;2022-11-15T00:00:16;3.37;;;2.20;;
7519;SDS011;3801;48.876;10.184;2022-11-15T00:05:38;2.93;;;2.20;;
7519;SDS011;3801;48.876;10.184;2022-11-15T00:11:02;4.97;;;3.20;;
7519;SDS011;3801;48.876;10.184;2022-11-15T00:16:25;4.83;;;3.30;;
7519;SDS011;3801;48.876;10.184;2022-11-15T00:21:47;6.97;;;4.07;;
7519;SDS011;3801;48.876;10.184;2022-11-15T00:27:08;5.53;;;2.77;;
7519;SDS011;3801;48.876;10.184;2022-11-15T00:32:32;7.43;;;2.67;;
7519;SDS011;3801;48.876;10.184;2022-11-15T00:37:54;6.03;;;2.93;;
7519;SDS011;3801;48.876;10.184;2022-11-15T00:43:16;7.97;;;2.63;;
7519;SDS011;3801;48.876;10.184;2022-11-15T00:48:38;5.20;;;3.30;;
7519;SDS011;3801;48.876;10.184;2022-11-15T00:54:00;10.83;;;3.07;;
7519;SDS011;3801;48.876;10.184;2022-11-15T00:59:22;5.63;;;3.13;;
7519;SDS011;3801;48.876;10.184;2022-11-15T01:04:45;7.83;;;3.60;;
7519;SDS011;3801;48.876;10.184;2022-11-15T01:10:07;3.60;;;2.20;;
7519;SDS011;3801;48.876;10.184;2022-11-15T01:15:29;3.60;;;2.50;;
7519;SDS011;3801;48.876;10.184;2022-11-15T01:20:52;2.20;;;2.00;;
7519;SDS011;3801;48.876;10.184;2022-11-15T01:26:16;4.23;;;2.33;;
7519;SDS011;3801;48.876;10.184;2022-11-15T01:31:38;2.97;;;2.20;;
7519;SDS011;3801;48.876;10.184;2022-11-15T01:37:01;2.00;;;1.80;;
7519;SDS011;3801;48.876;10.184;2022-11-15T01:42:22;2.20;;;1.90;;
7519;SDS011;3801;48.876;10.184;2022-11-15T01:47:45;3.27;;;2.00;;
7519;SDS011;3801;48.876;10.184;2022-11-15T01:53:09;3.37;;;1.77;;
7519;SDS011;3801;48.876;10.184;2022-11-15T01:58:31;2.23;;;2.03;;
7519;SDS011;3801;48.876;10.184;2022-11-15T02:03:54;3.37;;;2.00;;
7519;SDS011;3801;48.876;10.184;2022-11-15T02:09:18;3.10;;;2.00;;
7519;SDS011;3801;48.876;10.184;2022-11-15T02:14:40;1.97;;;1.70;;
7519;SDS011;3801;48.876;10.184;2022-11-15T02:20:08;3.63;;;1.97;;
7519;SDS011;3801;48.876;10.184;2022-11-15T02:25:40;3.50;;;1.87;;
7519;SDS011;3801;48.876;10.184;2022-11-15T02:31:07;2.67;;;2.20;;
7519;SDS011;3801;48.876;10.184;2022-11-15T02:36:34;3.27;;;2.20;;
7519;SDS011;3801;48.876;10.184;2022-11-15T02:42:00;2.43;;;1.83;;
7519;SDS011;3801;48.876;10.184;2022-11-15T02:47:25;5.07;;;2.37;;
7519;SDS011;3801;48.876;10.184;2022-11-15T02:52:49;4.57;;;2.93;;
7519;SDS011;3801;48.876;10.184;2022-11-15T02:58:17;5.13;;;3.57;;
7519;SDS011;3801;48.876;10.184;2022-11-15T03:03:47;9.30;;;4.20;;
7519;SDS011;3801;48.876;10.184;2022-11-15T03:09:10;5.40;;;3.77;;
7519;SDS011;3801;48.876;10.184;2022-11-15T03:14:35;8.03;;;3.40;;
7519;SDS011;3801;48.876;10.184;2022-11-15T03:20:00;3.40;;;3.10;;
7519;SDS011;3801;48.876;10.184;2022-11-15T03:25:23;4.37;;;3.30;;
7519;SDS011;3801;48.876;10.184;2022-11-15T03:30:45;4.37;;;3.37;;
7519;SDS011;3801;48.876;10.184;2022-11-15T03:36:08;4.57;;;3.20;;
7519;SDS011;3801;48.876;10.184;2022-11-15T03:41:32;5.73;;;4.00;;
7519;SDS011;3801;48.876;10.184;2022-11-15T03:46:56;4.27;;;3.20;;
7519;SDS011;3801;48.876;10.184;2022-11-15T03:52:21;4.80;;;3.70;;
7519;SDS011;3801;48.876;10.184;2022-11-15T03:57:43;5.73;;;3.27;;
7519;SDS011;3801;48.876;10.184;2022-11-15T04:03:05;4.40;;;3.10;;
7519;SDS011;3801;48.876;10.184;2022-11-15T04:08:29;5.37;;;4.00;;
7519;SDS011;3801;48.876;10.184;2022-11-15T04:13:51;4.27;;;3.53;;
7519;SDS011;3801;48.876;10.184;2022-11-15T04:19:12;4.80;;;3.63;;
7519;SDS011;3801;48.876;10.184;2022-11-15T04:24:53;6.33;;;3.77;;
7519;SDS011;3801;48.876;10.184;2022-11-15T04:30:15;7.60;;;3.97;;
7519;SDS011;3801;48.876;10.184;2022-11-15T04:35:37;8.93;;;4.50;;
7519;SDS011;3801;48.876;10.184;2022-11-15T04:41:01;6.97;;;4.53;;
7519;SDS011;3801;48.876;10.184;2022-11-15T04:46:23;5.63;;;3.90;;
7519;SDS011;3801;48.876;10.184;2022-11-15T04:51:45;5.83;;;3.80;;
7519;SDS011;3801;48.876;10.184;2022-11-15T04:57:08;6.23;;;3.67;;
7519;SDS011;3801;48.876;10.184;2022-11-15T05:02:30;7.87;;;4.37;;
7519;SDS011;3801;48.876;10.184;2022-11-15T05:08:06;5.03;;;3.63;;
7519;SDS011;3801;48.876;10.184;2022-11-15T05:13:29;5.23;;;3.50;;
7519;SDS011;3801;48.876;10.184;2022-11-15T05:18:52;4.67;;;3.70;;
7519;SDS011;3801;48.876;10.184;2022-11-15T05:24:14;6.27;;;3.83;;
7519;SDS011;3801;48.876;10.184;2022-11-15T05:29:37;4.30;;;3.17;;
7519;SDS011;3801;48.876;10.184;2022-11-15T05:34:59;6.47;;;3.77;;
7519;SDS011;3801;48.876;10.184;2022-11-15T05:40:20;4.90;;;3.40;;
7519;SDS011;3801;48.876;10.184;2022-11-15T05:45:44;4.23;;;3.37;;
7519;SDS011;3801;48.876;10.184;2022-11-15T05:51:06;6.67;;;3.60;;
7519;SDS011;3801;48.876;10.184;2022-11-15T05:56:28;6.23;;;3.63;;
7519;SDS011;3801;48.876;10.184;2022-11-15T06:01:52;5.23;;;3.37;;
7519;SDS011;3801;48.876;10.184;2022-11-15T06:07:14;4.67;;;3.20;;
7519;SDS011;3801;48.876;10.184;2022-11-15T06:12:36;3.57;;;2.83;;
7519;SDS011;3801;48.876;10.184;2022-11-15T06:17:59;3.07;;;2.37;;
7519;SDS011;3801;48.876;10.184;2022-11-15T06:23:20;3.27;;;2.43;;
7519;SDS011;3801;48.876;10.184;2022-11-15T06:28:45;3.10;;;2.33;;
7519;SDS011;3801;48.876;10.184;2022-11-15T06:34:08;3.83;;;2.70;;
7519;SDS011;3801;48.876;10.184;2022-11-15T06:39:30;3.27;;;2.37;;
7519;SDS011;3801;48.876;10.184;2022-11-15T06:44:52;2.43;;;2.23;;
7519;SDS011;3801;48.876;10.184;2022-11-15T06:50:15;3.53;;;2.40;;
7519;SDS011;3801;48.876;10.184;2022-11-15T06:55:37;3.00;;;2.33;;
7519;SDS011;3801;48.876;10.184;2022-11-15T07:00:59;2.67;;;2.07;;
7519;SDS011;3801;48.876;10.184;2022-11-15T07:06:22;5.77;;;4.20;;
7519;SDS011;3801;48.876;10.184;2022-11-15T07:11:44;6.13;;;4.00;;
7519;SDS011;3801;48.876;10.184;2022-11-15T07:17:06;6.37;;;4.47;;
7519;SDS011;3801;48.876;10.184;2022-11-15T07:22:29;4.00;;;3.60;;
7519;SDS011;3801;48.876;10.184;2022-11-15T07:27:54;4.50;;;3.57;;
7519;SDS011;3801;48.876;10.184;2022-11-15T07:33:16;6.03;;;4.30;;
7519;SDS011;3801;48.876;10.184;2022-11-15T07:38:39;7.30;;;4.50;;
7519;SDS011;3801;48.876;10.184;2022-11-15T07:44:02;5.53;;;3.50;;
7519;SDS011;3801;48.876;10.184;2022-11-15T07:49:24;8.93;;;6.50;;
7519;SDS011;3801;48.876;10.184;2022-11-15T07:54:47;5.80;;;4.80;;
7519;SDS011;3801;48.876;10.184;2022-11-15T08:00:09;8.93;;;5.67;;
7519;SDS011;3801;48.876;10.184;2022-11-15T08:05:31;8.07;;;5.50;;
7519;SDS011;3801;48.876;10.184;2022-11-15T08:10:54;8.73;;;5.40;;
7519;SDS011;3801;48.876;10.184;2022-11-15T08:16:18;7.33;;;5.50;;
7519;SDS011;3801;48.876;10.184;2022-11-15T08:21:40;9.97;;;6.27;;
7519;SDS011;3801;48.876;10.184;2022-11-15T08:27:04;8.27;;;5.83;;
7519;SDS011;3801;48.876;10.184;2022-11-15T08:32:35;8.67;;;5.60;;
7519;SDS011;3801;48.876;10.184;2022-11-15T08:37:57;7.67;;;5.90;;
7519;SDS011;3801;48.876;10.184;2022-11-15T08:43:20;5.07;;;4.07;;
7519;SDS011;3801;48.876;10.184;2022-11-15T08:48:42;6.37;;;4.47;;
7519;SDS011;3801;48.876;10.184;2022-11-15T08:54:03;6.07;;;4.43;;
7519;SDS011;3801;48.876;10.184;2022-11-15T08:59:26;7.70;;;4.40;;
7519;SDS011;3801;48.876;10.184;2022-11-15T09:04:48;6.93;;;3.30;;
7519;SDS011;3801;48.876;10.184;2022-11-15T09:10:10;6.20;;;3.70;;
7519;SDS011;3801;48.876;10.184;2022-11-15T09:15:33;7.40;;;5.07;;
7519;SDS011;3801;48.876;10.184;2022-11-15T09:20:55;5.87;;;3.53;;
7519;SDS011;3801;48.876;10.184;2022-11-15T09:26:19;4.07;;;3.60;;
7519;SDS011;3801;48.876;10.184;2022-11-15T09:31:42;5.23;;;3.93;;
7519;SDS011;3801;48.876;10.184;2022-11-15T09:37:03;6.83;;;4.93;;
7519;SDS011;3801;48.876;10.184;2022-11-15T09:42:29;9.47;;;4.27;;
7519;SDS011;3801;48.876;10.184;2022-11-15T09:48:11;4.50;;;3.50;;
7519;SDS011;3801;48.876;10.184;2022-11-15T09:53:38;3.90;;;3.20;;
7519;SDS011;3801;48.876;10.184;2022-11-15T09:59:08;4.43;;;2.97;;
7519;SDS011;3801;48.876;10.184;2022-11-15T10:04:16;3.23;;;2.93;;
7519;SDS011;3801;48.876;10.184;2022-11-15T10:09:21;4.70;;;2.50;;
7519;SDS011;3801;48.876;10.184;2022-11-15T10:14:27;3.23;;;2.77;;
7519;SDS011;3801;48.876;10.184;2022-11-15T10:19:34;2.50;;;2.10;;
7519;SDS011;3801;48.876;10.184;2022-11-15T10:24:39;2.30;;;2.07;;
7519;SDS011;3801;48.876;10.184;2022-11-15T10:29:43;2.23;;;1.90;;
7519;SDS011;3801;48.876;10.184;2022-11-15T10:34:48;3.10;;;2.40;;
7519;SDS011;3801;48.876;10.184;2022-11-15T10:40:02;3.00;;;1.97;;
7519;SDS011;3801;48.876;10.184;2022-11-15T10:45:09;4.50;;;2.67;;
7519;SDS011;3801;48.876;10.184;2022-11-15T10:50:28;2.50;;;2.00;;
7519;SDS011;3801;48.876;10.184;2022-11-15T10:55:31;2.40;;;2.13;;
7519;SDS011;3801;48.876;10.184;2022-11-15T11:00:36;2.67;;;1.97;;
7519;SDS011;3801;48.876;10.184;2022-11-15T11:05:42;2.47;;;2.00;;
7519;SDS011;3801;48.876;10.184;2022-11-15T11:10:51;2.43;;;1.83;;
7519;SDS011;3801;48.876;10.184;2022-11-15T11:16:17;2.40;;;1.90;;
7519;SDS011;3801;48.876;10.184;2022-11-15T11:21:25;3.93;;;2.37;;
7519;SDS011;3801;48.876;10.184;2022-11-15T11:26:40;2.13;;;1.90;;
7519;SDS011;3801;48.876;10.184;2022-11-15T11:31:46;2.13;;;1.73;;
7519;SDS011;3801;48.876;10.184;2022-11-15T11:36:54;3.43;;;2.00;;
7519;SDS011;3801;48.876;10.184;2022-11-15T11:42:02;3.23;;;2.33;;
7519;SDS011;3801;48.876;10.184;2022-11-15T11:47:07;4.20;;;2.73;;
7519;SDS011;3801;48.876;10.184;2022-11-15T11:52:15;4.37;;;3.13;;
7519;SDS011;3801;48.876;10.184;2022-11-15T11:57:22;3.33;;;2.60;;
7519;SDS011;3801;48.876;10.184;2022-11-15T12:02:28;2.90;;;2.37;;
7519;SDS011;3801;48.876;10.184;2022-11-15T12:07:34;4.50;;;2.20;;
7519;SDS011;3801;48.876;10.184;2022-11-15T12:12:40;3.57;;;3.00;;
7519;SDS011;3801;48.876;10.184;2022-11-15T12:17:46;2.67;;;1.93;;
7519;SDS011;3801;48.876;10.184;2022-11-15T12:22:52;4.77;;;3.53;;
7519;SDS011;3801;48.876;10.184;2022-11-15T12:27:57;5.10;;;3.00;;
7519;SDS011;3801;48.876;10.184;2022-11-15T12:33:01;4.53;;;3.53;;
7519;SDS011;3801;48.876;10.184;2022-11-15T12:38:09;6.33;;;3.60;;
7519;SDS011;3801;48.876;10.184;2022-11-15T12:53:50;3.47;;;3.03;;
7519;SDS011;3801;48.876;10.184;2022-11-15T12:58:55;4.13;;;2.57;;
7519;SDS011;3801;48.876;10.184;2022-11-15T13:14:44;4.20;;;3.03;;
7519;SDS011;3801;48.876;10.184;2022-11-15T13:19:48;4.90;;;2.80;;
7519;SDS011;3801;48.876;10.184;2022-11-15T13:24:55;2.70;;;2.40;;
7519;SDS011;3801;48.876;10.184;2022-11-15T13:30:00;4.27;;;2.40;;
7519;SDS011;3801;48.876;10.184;2022-11-15T13:35:06;3.23;;;2.60;;
7519;SDS011;3801;48.876;10.184;2022-11-15T13:40:10;4.73;;;2.70;;
7519;SDS011;3801;48.876;10.184;2022-11-15T13:45:20;4.47;;;2.37;;
7519;SDS011;3801;48.876;10.184;2022-11-15T13:50:24;3.10;;;2.10;;
7519;SDS011;3801;48.876;10.184;2022-11-15T13:55:28;3.70;;;2.23;;
7519;SDS011;3801;48.876;10.184;2022-11-15T14:00:36;4.47;;;2.20;;
7519;SDS011;3801;48.876;10.184;2022-11-15T14:05:40;2.50;;;2.30;;
7519;SDS011;3801;48.876;10.184;2022-11-15T14:10:43;2.17;;;1.90;;
7519;SDS011;3801;48.876;10.184;2022-11-15T14:15:48;3.90;;;2.30;;
7519;SDS011;3801;48.876;10.184;2022-11-15T14:20:51;3.07;;;2.00;;
7519;SDS011;3801;48.876;10.184;2022-11-15T14:26:11;3.13;;;1.87;;
7519;SDS011;3801;48.876;10.184;2022-11-15T14:31:29;1.87;;;1.60;;
7519;SDS011;3801;48.876;10.184;2022-11-15T14:36:32;2.10;;;1.73;;
7519;SDS011;3801;48.876;10.184;2022-11-15T14:41:36;2.20;;;1.83;;
7519;SDS011;3801;48.876;10.184;2022-11-15T14:46:41;2.70;;;1.90;;
7519;SDS011;3801;48.876;10.184;2022-11-15T14:51:44;4.03;;;1.83;;
7519;SDS011;3801;48.876;10.184;2022-11-15T14:56:47;3.20;;;2.10;;
7519;SDS011;3801;48.876;10.184;2022-11-15T15:01:51;3.30;;;2.20;;
7519;SDS011;3801;48.876;10.184;2022-11-15T15:06:55;4.07;;;2.77;;
7519;SDS011;3801;48.876;10.184;2022-11-15T15:11:58;4.23;;;2.23;;
7519;SDS011;3801;48.876;10.184;2022-11-15T15:17:08;3.30;;;2.40;;
7519;SDS011;3801;48.876;10.184;2022-11-15T15:22:12;4.23;;;3.03;;
7519;SDS011;3801;48.876;10.184;2022-11-15T15:27:17;3.40;;;2.80;;
7519;SDS011;3801;48.876;10.184;2022-11-15T15:32:21;7.57;;;3.47;;
7519;SDS011;3801;48.876;10.184;2022-11-15T15:37:25;5.57;;;4.30;;
7519;SDS011;3801;48.876;10.184;2022-11-15T15:42:28;7.43;;;4.50;;
7519;SDS011;3801;48.876;10.184;2022-11-15T15:47:34;6.07;;;4.83;;
7519;SDS011;3801;48.876;10.184;2022-11-15T15:52:37;4.10;;;2.90;;
7519;SDS011;3801;48.876;10.184;2022-11-15T15:57:41;3.23;;;2.70;;
7519;SDS011;3801;48.876;10.184;2022-11-15T16:02:45;3.93;;;2.83;;
7519;SDS011;3801;48.876;10.184;2022-11-15T16:07:48;4.27;;;2.67;;
7519;SDS011;3801;48.876;10.184;2022-11-15T16:12:52;3.53;;;2.93;;
7519;SDS011;3801;48.876;10.184;2022-11-15T16:17:57;5.13;;;3.53;;
7519;SDS011;3801;48.876;10.184;2022-11-15T16:23:01;4.70;;;2.93;;
7519;SDS011;3801;48.876;10.184;2022-11-15T16:28:15;6.10;;;4.00;;
7519;SDS011;3801;48.876;10.184;2022-11-15T16:33:20;5.20;;;3.57;;
7519;SDS011;3801;48.876;10.184;2022-11-15T16:38:23;7.37;;;4.00;;
7519;SDS011;3801;48.876;10.184;2022-11-15T16:43:27;6.17;;;3.93;;
7519;SDS011;3801;48.876;10.184;2022-11-15T16:48:31;7.27;;;4.10;;
7519;SDS011;3801;48.876;10.184;2022-11-15T16:53:36;25.47;;;10.33;;
7519;SDS011;3801;48.876;10.184;2022-11-15T16:58:39;8.77;;;6.60;;
7519;SDS011;3801;48.876;10.184;2022-11-15T17:03:44;6.73;;;4.73;;
7519;SDS011;3801;48.876;10.184;2022-11-15T17:08:47;8.33;;;5.83;;
7519;SDS011;3801;48.876;10.184;2022-11-15T17:13:54;7.87;;;5.40;;
7519;SDS011;3801;48.876;10.184;2022-11-15T17:19:00;10.63;;;7.00;;
7519;SDS011;3801;48.876;10.184;2022-11-15T17:24:04;9.77;;;6.43;;
7519;SDS011;3801;48.876;10.184;2022-11-15T17:29:07;9.77;;;7.00;;
7519;SDS011;3801;48.876;10.184;2022-11-15T17:34:12;13.40;;;6.03;;
7519;SDS011;3801;48.876;10.184;2022-11-15T17:39:15;12.63;;;7.00;;
7519;SDS011;3801;48.876;10.184;2022-11-15T17:44:20;18.90;;;6.70;;
7519;SDS011;3801;48.876;10.184;2022-11-15T17:49:25;11.50;;;6.93;;
7519;SDS011;3801;48.876;10.184;2022-11-15T17:54:28;10.20;;;5.93;;
7519;SDS011;3801;48.876;10.184;2022-11-15T17:59:31;10.40;;;6.60;;
7519;SDS011;3801;48.876;10.184;2022-11-15T18:04:36;9.87;;;6.10;;
7519;SDS011;3801;48.876;10.184;2022-11-15T18:09:39;13.70;;;7.00;;
7519;SDS011;3801;48.876;10.184;2022-11-15T18:14:44;8.17;;;5.47;;
7519;SDS011;3801;48.876;10.184;2022-11-15T18:19:49;9.93;;;6.67;;
7519;SDS011;3801;48.876;10.184;2022-11-15T18:24:52;10.03;;;5.67;;
7519;SDS011;3801;48.876;10.184;2022-11-15T18:29:56;12.87;;;5.80;;
7519;SDS011;3801;48.876;10.184;2022-11-15T18:35:00;14.27;;;7.30;;
7519;SDS011;3801;48.876;10.184;2022-11-15T18:40:04;11.57;;;7.13;;
7519;SDS011;3801;48.876;10.184;2022-11-15T18:45:08;13.83;;;7.43;;
7519;SDS011;3801;48.876;10.184;2022-11-15T18:50:13;9.63;;;6.03;;
7519;SDS011;3801;48.876;10.184;2022-11-15T18:55:16;9.60;;;5.93;;
7519;SDS011;3801;48.876;10.184;2022-11-15T19:00:19;9.00;;;6.53;;
7519;SDS011;3801;48.876;10.184;2022-11-15T19:05:24;8.53;;;6.10;;
7519;SDS011;3801;48.876;10.184;2022-11-15T19:10:27;9.37;;;5.93;;
7519;SDS011;3801;48.876;10.184;2022-11-15T19:15:31;10.23;;;6.13;;
7519;SDS011;3801;48.876;10.184;2022-11-15T19:20:35;7.27;;;5.57;;
7519;SDS011;3801;48.876;10.184;2022-11-15T19:25:39;7.27;;;4.90;;
7519;SDS011;3801;48.876;10.184;2022-11-15T19:30:42;12.33;;;6.80;;
7519;SDS011;3801;48.876;10.184;2022-11-15T19:35:47;8.50;;;6.43;;
7519;SDS011;3801;48.876;10.184;2022-11-15T19:40:53;10.20;;;6.40;;
7519;SDS011;3801;48.876;10.184;2022-11-15T19:45:59;9.10;;;7.27;;
7519;SDS011;3801;48.876;10.184;2022-11-15T19:51:05;8.73;;;6.63;;
7519;SDS011;3801;48.876;10.184;2022-11-15T19:56:09;9.83;;;7.33;;
7519;SDS011;3801;48.876;10.184;2022-11-15T20:01:14;10.13;;;6.13;;
7519;SDS011;3801;48.876;10.184;2022-11-15T20:06:20;9.17;;;6.30;;
7519;SDS011;3801;48.876;10.184;2022-11-15T20:11:24;8.97;;;5.73;;
7519;SDS011;3801;48.876;10.184;2022-11-15T20:16:27;14.13;;;6.37;;
7519;SDS011;3801;48.876;10.184;2022-11-15T20:21:32;7.43;;;5.37;;
7519;SDS011;3801;48.876;10.184;2022-11-15T20:26:36;9.03;;;6.37;;
7519;SDS011;3801;48.876;10.184;2022-11-15T20:31:40;8.47;;;5.73;;
7519;SDS011;3801;48.876;10.184;2022-11-15T20:36:44;8.43;;;5.77;;
7519;SDS011;3801;48.876;10.184;2022-11-15T20:41:47;10.53;;;7.27;;
7519;SDS011;3801;48.876;10.184;2022-11-15T20:46:51;10.73;;;6.40;;
7519;SDS011;3801;48.876;10.184;2022-11-15T20:51:56;15.47;;;8.57;;
7519;SDS011;3801;48.876;10.184;2022-11-15T20:57:00;16.77;;;10.40;;
7519;SDS011;3801;48.876;10.184;2022-11-15T21:02:04;10.23;;;6.40;;
7519;SDS011;3801;48.876;10.184;2022-11-15T21:07:09;11.97;;;6.67;;
7519;SDS011;3801;48.876;10.184;2022-11-15T21:12:12;10.80;;;7.27;;
7519;SDS011;3801;48.876;10.184;2022-11-15T21:17:16;28.63;;;13.53;;
7519;SDS011;3801;48.876;10.184;2022-11-15T21:22:21;33.07;;;18.63;;
7519;SDS011;3801;48.876;10.184;2022-11-15T21:27:24;22.17;;;12.33;;
7519;SDS011;3801;48.876;10.184;2022-11-15T21:32:28;7.83;;;5.93;;
7519;SDS011;3801;48.876;10.184;2022-11-15T21:37:32;38.83;;;18.93;;
7519;SDS011;3801;48.876;10.184;2022-11-15T21:42:35;46.17;;;23.80;;
7519;SDS011;3801;48.876;10.184;2022-11-15T21:47:40;33.23;;;16.53;;
7519;SDS011;3801;48.876;10.184;2022-11-15T21:52:48;57.20;;;31.60;;
7519;SDS011;3801;48.876;10.184;2022-11-15T21:57:52;13.83;;;10.07;;
7519;SDS011;3801;48.876;10.184;2022-11-15T22:02:55;11.37;;;7.47;;
7519;SDS011;3801;48.876;10.184;2022-11-15T22:08:00;10.63;;;8.20;;
7519;SDS011;3801;48.876;10.184;2022-11-15T22:13:03;13.67;;;9.37;;
7519;SDS011;3801;48.876;10.184;2022-11-15T22:18:07;8.40;;;5.87;;
7519;SDS011;3801;48.876;10.184;2022-11-15T22:23:12;8.43;;;5.90;;
7519;SDS011;3801;48.876;10.184;2022-11-15T22:28:15;11.30;;;7.60;;
7519;SDS011;3801;48.876;10.184;2022-11-15T22:33:19;6.73;;;4.97;;
7519;SDS011;3801;48.876;10.184;2022-11-15T22:38:27;10.50;;;5.93;;
7519;SDS011;3801;48.876;10.184;2022-11-15T22:43:30;8.00;;;4.70;;
7519;SDS011;3801;48.876;10.184;2022-11-15T22:48:34;8.93;;;5.10;;
7519;SDS011;3801;48.876;10.184;2022-11-15T22:53:40;6.17;;;4.43;;
7519;SDS011;3801;48.876;10.184;2022-11-15T22:58:43;6.90;;;4.63;;
7519;SDS011;3801;48.876;10.184;2022-11-15T23:03:47;6.63;;;5.93;;
7519;SDS011;3801;48.876;10.184;2022-11-15T23:08:52;8.07;;;5.17;;
7519;SDS011;3801;48.876;10.184;2022-11-15T23:13:55;6.63;;;5.50;;
7519;SDS011;3801;48.876;10.184;2022-11-15T23:19:00;6.80;;;4.93;;
7519;SDS011;3801;48.876;10.184;2022-11-15T23:24:05;6.43;;;5.13;;
7519;SDS011;3801;48.876;10.184;2022-11-15T23:29:09;5.77;;;4.70;;
7519;SDS011;3801;48.876;10.184;2022-11-15T23:34:13;7.83;;;4.67;;
7519;SDS011;3801;48.876;10.184;2022-11-15T23:39:24;7.83;;;5.00;;
7519;SDS011;3801;48.876;10.184;2022-11-15T23:44:28;7.27;;;5.20;;
7519;SDS011;3801;48.876;10.184;2022-11-15T23:49:31;7.40;;;4.80;;
7519;SDS011;3801;48.876;10.184;2022-11-15T23:54:36;6.50;;;5.47;;
7519;SDS011;3801;48.876;10.184;2022-11-15T23:59:39;8.90;;;5.13;;
